sensor_id;sensor_type;location;lat;lon;timestamp;temperature;humidity
11009;DHT22;5557;51.670;7.788;2023-06-22T00:00:13;20.40;1.00
11009;DHT22;5557;51.670;7.788;2023-06-22T00:02:40;20.40;1.00
11009;DHT22;5557;51.670;7.788;2023-06-22T00:05:07;20.40;1.00
11009;DHT22;5557;51.670;7.788;2023-06-22T00:07:34;20.40;1.00
11009;DHT22;5557;51.670;7.788;2023-06-22T00:10:01;20.30;2.00
11009;DHT22;5557;51.670;7.788;2023-06-22T00:12:28;20.30;1.90
11009;DHT22;5557;51.670;7.788;2023-06-22T00:14:55;20.30;2.50
11009;DHT22;5557;51.670;7.788;2023-06-22T00:17:22;20.30;2.70
11009;DHT22;5557;51.670;7.788;2023-06-22T00:19:49;20.30;3.50
11009;DHT22;5557;51.670;7.788;2023-06-22T00:22:20;20.20;3.40
11009;DHT22;5557;51.670;7.788;2023-06-22T00:24:55;20.20;4.10
11009;DHT22;5557;51.670;7.788;2023-06-22T00:27:23;20.20;5.30
11009;DHT22;5557;51.670;7.788;2023-06-22T00:29:50;20.10;6.40
11009;DHT22;5557;51.670;7.788;2023-06-22T00:32:17;20.10;7.30
11009;DHT22;5557;51.670;7.788;2023-06-22T00:34:44;20.10;7.10
11009;DHT22;5557;51.670;7.788;2023-06-22T00:37:11;20.00;7.40
11009;DHT22;5557;51.670;7.788;2023-06-22T00:39:41;20.00;8.40
11009;DHT22;5557;51.670;7.788;2023-06-22T00:42:08;20.00;9.60
11009;DHT22;5557;51.670;7.788;2023-06-22T00:44:36;19.90;9.70
11009;DHT22;5557;51.670;7.788;2023-06-22T00:47:03;19.90;10.20
11009;DHT22;5557;51.670;7.788;2023-06-22T00:49:31;19.90;11.00
11009;DHT22;5557;51.670;7.788;2023-06-22T00:51:58;19.90;11.20
11009;DHT22;5557;51.670;7.788;2023-06-22T00:54:25;19.80;11.50
11009;DHT22;5557;51.670;7.788;2023-06-22T00:56:53;19.80;11.90
11009;DHT22;5557;51.670;7.788;2023-06-22T00:59:24;19.80;12.20
11009;DHT22;5557;51.670;7.788;2023-06-22T01:01:53;19.70;13.10
11009;DHT22;5557;51.670;7.788;2023-06-22T01:04:24;19.70;14.20
11009;DHT22;5557;51.670;7.788;2023-06-22T01:07:04;19.70;14.20
11009;DHT22;5557;51.670;7.788;2023-06-22T01:09:35;19.70;15.80
11009;DHT22;5557;51.670;7.788;2023-06-22T01:12:07;19.60;17.40
11009;DHT22;5557;51.670;7.788;2023-06-22T01:15:01;19.60;18.10
11009;DHT22;5557;51.670;7.788;2023-06-22T01:17:29;19.60;20.00
11009;DHT22;5557;51.670;7.788;2023-06-22T01:19:57;19.50;20.20
11009;DHT22;5557;51.670;7.788;2023-06-22T01:22:30;19.50;20.10
11009;DHT22;5557;51.670;7.788;2023-06-22T01:25:11;19.50;20.20
11009;DHT22;5557;51.670;7.788;2023-06-22T01:31:05;19.40;22.60
11009;DHT22;5557;51.670;7.788;2023-06-22T01:33:35;19.40;21.70
11009;DHT22;5557;51.670;7.788;2023-06-22T01:36:05;19.40;22.20
11009;DHT22;5557;51.670;7.788;2023-06-22T01:38:33;19.40;22.30
11009;DHT22;5557;51.670;7.788;2023-06-22T01:41:01;19.40;22.70
11009;DHT22;5557;51.670;7.788;2023-06-22T01:43:30;19.40;23.50
11009;DHT22;5557;51.670;7.788;2023-06-22T01:46:00;19.40;24.20
11009;DHT22;5557;51.670;7.788;2023-06-22T01:48:27;19.40;24.20
11009;DHT22;5557;51.670;7.788;2023-06-22T01:50:55;19.40;26.00
11009;DHT22;5557;51.670;7.788;2023-06-22T01:53:23;19.40;26.20
11009;DHT22;5557;51.670;7.788;2023-06-22T01:55:50;19.40;26.80
11009;DHT22;5557;51.670;7.788;2023-06-22T01:58:20;19.40;27.90
11009;DHT22;5557;51.670;7.788;2023-06-22T02:00:55;19.30;27.00
11009;DHT22;5557;51.670;7.788;2023-06-22T02:03:30;19.30;27.90
11009;DHT22;5557;51.670;7.788;2023-06-22T02:06:03;19.30;28.90
11009;DHT22;5557;51.670;7.788;2023-06-22T02:08:35;19.20;29.30
11009;DHT22;5557;51.670;7.788;2023-06-22T02:11:03;19.20;30.20
11009;DHT22;5557;51.670;7.788;2023-06-22T02:13:33;19.20;32.00
11009;DHT22;5557;51.670;7.788;2023-06-22T02:16:00;19.10;32.30
11009;DHT22;5557;51.670;7.788;2023-06-22T02:18:28;19.10;33.00
11009;DHT22;5557;51.670;7.788;2023-06-22T02:20:55;19.10;33.70
11009;DHT22;5557;51.670;7.788;2023-06-22T02:23:22;19.10;34.60
11009;DHT22;5557;51.670;7.788;2023-06-22T02:25:49;19.00;35.60
11009;DHT22;5557;51.670;7.788;2023-06-22T02:28:16;19.00;35.00
11009;DHT22;5557;51.670;7.788;2023-06-22T02:30:43;19.00;37.50
11009;DHT22;5557;51.670;7.788;2023-06-22T02:33:10;19.00;36.70
11009;DHT22;5557;51.670;7.788;2023-06-22T02:35:37;19.00;37.50
11009;DHT22;5557;51.670;7.788;2023-06-22T02:38:04;19.00;38.10
11009;DHT22;5557;51.670;7.788;2023-06-22T02:40:31;18.90;39.80
11009;DHT22;5557;51.670;7.788;2023-06-22T02:42:58;18.90;42.10
11009;DHT22;5557;51.670;7.788;2023-06-22T02:45:29;18.90;42.30
11009;DHT22;5557;51.670;7.788;2023-06-22T02:47:56;18.80;43.20
11009;DHT22;5557;51.670;7.788;2023-06-22T02:50:23;18.80;44.70
11009;DHT22;5557;51.670;7.788;2023-06-22T02:52:50;18.80;46.20
11009;DHT22;5557;51.670;7.788;2023-06-22T02:55:17;18.80;44.50
11009;DHT22;5557;51.670;7.788;2023-06-22T02:57:46;18.80;45.20
11009;DHT22;5557;51.670;7.788;2023-06-22T03:00:14;18.80;45.50
11009;DHT22;5557;51.670;7.788;2023-06-22T03:02:47;18.70;46.20
11009;DHT22;5557;51.670;7.788;2023-06-22T03:05:15;18.70;47.10
11009;DHT22;5557;51.670;7.788;2023-06-22T03:07:47;18.70;46.10
11009;DHT22;5557;51.670;7.788;2023-06-22T03:10:14;18.70;45.90
11009;DHT22;5557;51.670;7.788;2023-06-22T03:12:42;18.70;46.60
11009;DHT22;5557;51.670;7.788;2023-06-22T03:15:11;18.60;46.50
11009;DHT22;5557;51.670;7.788;2023-06-22T03:17:39;18.60;47.00
11009;DHT22;5557;51.670;7.788;2023-06-22T03:20:07;18.60;47.90
11009;DHT22;5557;51.670;7.788;2023-06-22T03:22:39;18.60;47.90
11009;DHT22;5557;51.670;7.788;2023-06-22T03:25:10;18.60;48.90
11009;DHT22;5557;51.670;7.788;2023-06-22T03:27:43;18.60;50.70
11009;DHT22;5557;51.670;7.788;2023-06-22T03:30:14;18.60;51.40
11009;DHT22;5557;51.670;7.788;2023-06-22T03:32:42;18.60;50.90
11009;DHT22;5557;51.670;7.788;2023-06-22T03:35:10;18.60;50.50
11009;DHT22;5557;51.670;7.788;2023-06-22T03:37:40;18.50;51.70
11009;DHT22;5557;51.670;7.788;2023-06-22T03:40:08;18.50;53.50
11009;DHT22;5557;51.670;7.788;2023-06-22T03:42:35;18.50;52.90
11009;DHT22;5557;51.670;7.788;2023-06-22T03:45:03;18.50;54.00
11009;DHT22;5557;51.670;7.788;2023-06-22T03:47:30;18.60;53.90
11009;DHT22;5557;51.670;7.788;2023-06-22T03:49:57;18.60;53.00
11009;DHT22;5557;51.670;7.788;2023-06-22T03:52:24;18.60;51.60
11009;DHT22;5557;51.670;7.788;2023-06-22T03:54:52;18.60;50.10
11009;DHT22;5557;51.670;7.788;2023-06-22T03:57:19;18.70;49.30
11009;DHT22;5557;51.670;7.788;2023-06-22T03:59:46;18.70;48.90
11009;DHT22;5557;51.670;7.788;2023-06-22T04:02:13;18.70;48.90
11009;DHT22;5557;51.670;7.788;2023-06-22T04:04:40;18.80;47.30
11009;DHT22;5557;51.670;7.788;2023-06-22T04:07:07;18.80;46.50
11009;DHT22;5557;51.670;7.788;2023-06-22T04:09:35;18.90;46.50
11009;DHT22;5557;51.670;7.788;2023-06-22T04:12:02;18.90;45.90
11009;DHT22;5557;51.670;7.788;2023-06-22T04:14:29;19.00;45.30
11009;DHT22;5557;51.670;7.788;2023-06-22T04:16:57;19.00;44.90
11009;DHT22;5557;51.670;7.788;2023-06-22T04:19:24;19.10;44.00
11009;DHT22;5557;51.670;7.788;2023-06-22T04:21:51;19.10;44.60
11009;DHT22;5557;51.670;7.788;2023-06-22T04:24:17;19.10;45.30
11009;DHT22;5557;51.670;7.788;2023-06-22T04:26:44;19.20;44.70
11009;DHT22;5557;51.670;7.788;2023-06-22T04:29:14;19.20;44.30
11009;DHT22;5557;51.670;7.788;2023-06-22T04:31:41;19.20;45.50
11009;DHT22;5557;51.670;7.788;2023-06-22T04:34:09;19.30;44.60
11009;DHT22;5557;51.670;7.788;2023-06-22T04:36:37;19.30;44.30
11009;DHT22;5557;51.670;7.788;2023-06-22T04:39:09;19.40;43.70
11009;DHT22;5557;51.670;7.788;2023-06-22T04:41:38;19.50;41.50
11009;DHT22;5557;51.670;7.788;2023-06-22T04:44:15;19.60;39.40
11009;DHT22;5557;51.670;7.788;2023-06-22T04:46:56;19.70;38.10
11009;DHT22;5557;51.670;7.788;2023-06-22T04:49:27;19.80;34.70
11009;DHT22;5557;51.670;7.788;2023-06-22T04:52:11;20.10;30.00
11009;DHT22;5557;51.670;7.788;2023-06-22T04:54:39;20.30;26.60
11009;DHT22;5557;51.670;7.788;2023-06-22T04:57:14;20.40;24.50
11009;DHT22;5557;51.670;7.788;2023-06-22T04:59:41;20.60;21.90
11009;DHT22;5557;51.670;7.788;2023-06-22T05:02:09;21.00;18.60
11009;DHT22;5557;51.670;7.788;2023-06-22T05:04:36;21.50;12.00
11009;DHT22;5557;51.670;7.788;2023-06-22T05:07:06;21.60;9.30
11009;DHT22;5557;51.670;7.788;2023-06-22T05:09:33;21.50;10.50
11009;DHT22;5557;51.670;7.788;2023-06-22T05:12:03;21.30;12.60
11009;DHT22;5557;51.670;7.788;2023-06-22T05:14:33;21.10;14.40
11009;DHT22;5557;51.670;7.788;2023-06-22T05:17:00;21.00;16.80
11009;DHT22;5557;51.670;7.788;2023-06-22T05:19:30;21.10;17.00
11009;DHT22;5557;51.670;7.788;2023-06-22T05:22:01;21.00;16.90
11009;DHT22;5557;51.670;7.788;2023-06-22T05:24:28;21.10;16.90
11009;DHT22;5557;51.670;7.788;2023-06-22T05:26:54;21.20;15.70
11009;DHT22;5557;51.670;7.788;2023-06-22T05:29:22;21.30;15.30
11009;DHT22;5557;51.670;7.788;2023-06-22T05:31:49;21.40;14.00
11009;DHT22;5557;51.670;7.788;2023-06-22T05:34:16;21.30;14.30
11009;DHT22;5557;51.670;7.788;2023-06-22T05:36:43;21.30;15.30
11009;DHT22;5557;51.670;7.788;2023-06-22T05:39:14;21.20;16.50
11009;DHT22;5557;51.670;7.788;2023-06-22T05:41:41;21.10;17.00
11009;DHT22;5557;51.670;7.788;2023-06-22T05:44:10;21.00;17.30
11009;DHT22;5557;51.670;7.788;2023-06-22T05:46:41;20.90;18.30
11009;DHT22;5557;51.670;7.788;2023-06-22T05:49:14;20.80;20.90
11009;DHT22;5557;51.670;7.788;2023-06-22T05:51:43;20.60;22.20
11009;DHT22;5557;51.670;7.788;2023-06-22T05:54:10;20.60;23.60
11009;DHT22;5557;51.670;7.788;2023-06-22T05:56:37;20.50;24.50
11009;DHT22;5557;51.670;7.788;2023-06-22T05:59:04;20.50;24.20
11009;DHT22;5557;51.670;7.788;2023-06-22T06:01:31;20.40;24.50
11009;DHT22;5557;51.670;7.788;2023-06-22T06:04:03;20.30;25.10
11009;DHT22;5557;51.670;7.788;2023-06-22T06:06:31;20.40;26.10
11009;DHT22;5557;51.670;7.788;2023-06-22T06:08:58;20.30;25.00
11009;DHT22;5557;51.670;7.788;2023-06-22T06:11:26;20.20;27.20
11009;DHT22;5557;51.670;7.788;2023-06-22T06:13:53;20.20;29.60
11009;DHT22;5557;51.670;7.788;2023-06-22T06:16:20;20.20;29.40
11009;DHT22;5557;51.670;7.788;2023-06-22T06:18:48;20.20;35.20
11009;DHT22;5557;51.670;7.788;2023-06-22T06:21:17;20.10;40.20
11009;DHT22;5557;51.670;7.788;2023-06-22T06:23:44;20.00;43.40
11009;DHT22;5557;51.670;7.788;2023-06-22T06:26:11;20.00;50.20
11009;DHT22;5557;51.670;7.788;2023-06-22T06:28:38;20.00;50.10
11009;DHT22;5557;51.670;7.788;2023-06-22T06:31:05;20.00;53.50
11009;DHT22;5557;51.670;7.788;2023-06-22T06:33:35;19.90;57.90
11009;DHT22;5557;51.670;7.788;2023-06-22T06:36:02;19.80;63.40
11009;DHT22;5557;51.670;7.788;2023-06-22T06:38:30;19.80;65.70
11009;DHT22;5557;51.670;7.788;2023-06-22T06:40:58;19.80;69.20
11009;DHT22;5557;51.670;7.788;2023-06-22T06:43:25;19.80;68.40
11009;DHT22;5557;51.670;7.788;2023-06-22T06:45:52;19.80;70.20
11009;DHT22;5557;51.670;7.788;2023-06-22T06:48:19;19.90;70.30
11009;DHT22;5557;51.670;7.788;2023-06-22T06:50:46;19.90;70.40
11009;DHT22;5557;51.670;7.788;2023-06-22T06:53:13;19.90;70.60
11009;DHT22;5557;51.670;7.788;2023-06-22T06:55:40;19.90;72.50
11009;DHT22;5557;51.670;7.788;2023-06-22T06:58:07;20.00;72.90
11009;DHT22;5557;51.670;7.788;2023-06-22T07:00:36;20.00;72.80
11009;DHT22;5557;51.670;7.788;2023-06-22T07:03:03;20.20;75.50
11009;DHT22;5557;51.670;7.788;2023-06-22T07:05:30;20.20;75.20
11009;DHT22;5557;51.670;7.788;2023-06-22T07:07:57;20.30;77.40
11009;DHT22;5557;51.670;7.788;2023-06-22T07:10:24;20.30;77.10
11009;DHT22;5557;51.670;7.788;2023-06-22T07:12:51;20.40;78.70
11009;DHT22;5557;51.670;7.788;2023-06-22T07:15:18;20.50;78.00
11009;DHT22;5557;51.670;7.788;2023-06-22T07:17:45;20.60;76.40
11009;DHT22;5557;51.670;7.788;2023-06-22T07:20:12;20.70;77.30
11009;DHT22;5557;51.670;7.788;2023-06-22T07:22:41;20.80;78.70
11009;DHT22;5557;51.670;7.788;2023-06-22T07:25:09;20.90;78.00
11009;DHT22;5557;51.670;7.788;2023-06-22T07:27:43;21.00;77.30
11009;DHT22;5557;51.670;7.788;2023-06-22T07:30:12;21.00;74.80
11009;DHT22;5557;51.670;7.788;2023-06-22T07:32:40;21.20;71.70
11009;DHT22;5557;51.670;7.788;2023-06-22T07:35:08;21.30;69.70
11009;DHT22;5557;51.670;7.788;2023-06-22T07:37:35;21.40;66.20
11009;DHT22;5557;51.670;7.788;2023-06-22T07:40:02;21.50;62.50
11009;DHT22;5557;51.670;7.788;2023-06-22T07:42:33;21.60;53.80
11009;DHT22;5557;51.670;7.788;2023-06-22T07:45:00;21.60;54.00
11009;DHT22;5557;51.670;7.788;2023-06-22T07:47:27;21.60;53.40
11009;DHT22;5557;51.670;7.788;2023-06-22T07:49:57;21.60;51.70
11009;DHT22;5557;51.670;7.788;2023-06-22T07:52:25;21.80;51.80
11009;DHT22;5557;51.670;7.788;2023-06-22T07:54:55;21.70;50.50
11009;DHT22;5557;51.670;7.788;2023-06-22T07:57:22;21.70;50.50
11009;DHT22;5557;51.670;7.788;2023-06-22T07:59:48;21.70;49.30
11009;DHT22;5557;51.670;7.788;2023-06-22T08:02:15;21.70;52.80
11009;DHT22;5557;51.670;7.788;2023-06-22T08:04:42;21.70;54.30
11009;DHT22;5557;51.670;7.788;2023-06-22T08:07:09;21.90;53.50
11009;DHT22;5557;51.670;7.788;2023-06-22T08:09:37;22.00;52.00
11009;DHT22;5557;51.670;7.788;2023-06-22T08:12:04;22.00;51.80
11009;DHT22;5557;51.670;7.788;2023-06-22T08:14:31;22.00;50.80
11009;DHT22;5557;51.670;7.788;2023-06-22T08:16:58;22.10;49.80
11009;DHT22;5557;51.670;7.788;2023-06-22T08:19:25;22.10;48.90
11009;DHT22;5557;51.670;7.788;2023-06-22T08:21:52;22.10;46.80
11009;DHT22;5557;51.670;7.788;2023-06-22T08:24:19;22.10;46.00
11009;DHT22;5557;51.670;7.788;2023-06-22T08:26:47;22.20;46.50
11009;DHT22;5557;51.670;7.788;2023-06-22T08:29:13;22.30;44.00
11009;DHT22;5557;51.670;7.788;2023-06-22T08:31:41;22.50;40.00
11009;DHT22;5557;51.670;7.788;2023-06-22T08:34:08;22.80;36.20
11009;DHT22;5557;51.670;7.788;2023-06-22T08:36:37;22.90;34.80
11009;DHT22;5557;51.670;7.788;2023-06-22T08:39:08;23.10;30.00
11009;DHT22;5557;51.670;7.788;2023-06-22T08:41:35;23.20;25.50
11009;DHT22;5557;51.670;7.788;2023-06-22T08:44:02;23.40;23.00
11009;DHT22;5557;51.670;7.788;2023-06-22T08:46:30;23.80;19.10
11009;DHT22;5557;51.670;7.788;2023-06-22T08:49:00;24.90;6.90
11009;DHT22;5557;51.670;7.788;2023-06-22T08:51:27;25.30;2.90
11009;DHT22;5557;51.670;7.788;2023-06-22T08:53:54;25.70;1.00
11009;DHT22;5557;51.670;7.788;2023-06-22T08:56:21;26.20;1.00
11009;DHT22;5557;51.670;7.788;2023-06-22T08:58:48;26.50;1.00
11009;DHT22;5557;51.670;7.788;2023-06-22T09:01:15;26.90;1.00
11009;DHT22;5557;51.670;7.788;2023-06-22T09:03:44;27.30;1.00
11009;DHT22;5557;51.670;7.788;2023-06-22T09:06:21;27.60;1.00
11009;DHT22;5557;51.670;7.788;2023-06-22T09:08:48;28.10;1.00
11009;DHT22;5557;51.670;7.788;2023-06-22T09:11:16;28.70;1.00
11009;DHT22;5557;51.670;7.788;2023-06-22T09:13:43;28.60;1.00
11009;DHT22;5557;51.670;7.788;2023-06-22T09:16:10;28.10;1.00
11009;DHT22;5557;51.670;7.788;2023-06-22T09:18:38;28.20;1.00
11009;DHT22;5557;51.670;7.788;2023-06-22T09:21:05;28.00;1.00
11009;DHT22;5557;51.670;7.788;2023-06-22T09:23:32;28.30;1.00
11009;DHT22;5557;51.670;7.788;2023-06-22T09:25:59;28.30;1.00
11009;DHT22;5557;51.670;7.788;2023-06-22T09:28:26;27.80;1.00
11009;DHT22;5557;51.670;7.788;2023-06-22T09:30:53;27.60;1.00
11009;DHT22;5557;51.670;7.788;2023-06-22T09:33:25;27.80;1.00
11009;DHT22;5557;51.670;7.788;2023-06-22T09:35:53;27.90;1.00
11009;DHT22;5557;51.670;7.788;2023-06-22T09:38:20;28.30;1.00
11009;DHT22;5557;51.670;7.788;2023-06-22T09:40:47;28.90;1.00
11009;DHT22;5557;51.670;7.788;2023-06-22T09:43:14;29.10;1.00
11009;DHT22;5557;51.670;7.788;2023-06-22T09:45:41;28.60;1.00
11009;DHT22;5557;51.670;7.788;2023-06-22T09:48:08;28.80;1.00
11009;DHT22;5557;51.670;7.788;2023-06-22T09:50:36;28.70;1.00
11009;DHT22;5557;51.670;7.788;2023-06-22T09:53:04;28.70;1.00
11009;DHT22;5557;51.670;7.788;2023-06-22T09:55:30;28.90;1.00
11009;DHT22;5557;51.670;7.788;2023-06-22T09:57:58;28.80;1.00
11009;DHT22;5557;51.670;7.788;2023-06-22T10:00:24;29.00;1.00
11009;DHT22;5557;51.670;7.788;2023-06-22T10:02:53;29.10;1.00
11009;DHT22;5557;51.670;7.788;2023-06-22T10:05:26;29.20;1.00
11009;DHT22;5557;51.670;7.788;2023-06-22T10:07:54;29.20;1.00
11009;DHT22;5557;51.670;7.788;2023-06-22T10:10:22;28.80;1.00
11009;DHT22;5557;51.670;7.788;2023-06-22T10:12:55;28.20;1.00
11009;DHT22;5557;51.670;7.788;2023-06-22T10:15:23;27.90;1.00
11009;DHT22;5557;51.670;7.788;2023-06-22T10:17:50;27.80;1.00
11009;DHT22;5557;51.670;7.788;2023-06-22T10:20:18;27.80;1.00
11009;DHT22;5557;51.670;7.788;2023-06-22T10:22:45;27.90;1.00
11009;DHT22;5557;51.670;7.788;2023-06-22T10:25:13;28.10;1.00
11009;DHT22;5557;51.670;7.788;2023-06-22T10:27:40;28.30;1.00
11009;DHT22;5557;51.670;7.788;2023-06-22T10:30:08;28.20;1.00
11009;DHT22;5557;51.670;7.788;2023-06-22T10:32:37;28.10;1.00
11009;DHT22;5557;51.670;7.788;2023-06-22T10:35:05;28.10;1.00
11009;DHT22;5557;51.670;7.788;2023-06-22T10:37:32;28.00;1.00
11009;DHT22;5557;51.670;7.788;2023-06-22T10:39:59;27.80;1.00
11009;DHT22;5557;51.670;7.788;2023-06-22T10:42:26;27.70;1.00
11009;DHT22;5557;51.670;7.788;2023-06-22T10:44:53;27.80;1.00
11009;DHT22;5557;51.670;7.788;2023-06-22T10:47:20;27.80;1.00
11009;DHT22;5557;51.670;7.788;2023-06-22T10:49:47;27.90;1.00
11009;DHT22;5557;51.670;7.788;2023-06-22T10:52:14;27.90;1.00
11009;DHT22;5557;51.670;7.788;2023-06-22T10:54:41;28.00;1.00
11009;DHT22;5557;51.670;7.788;2023-06-22T10:57:08;28.00;1.00
11009;DHT22;5557;51.670;7.788;2023-06-22T10:59:35;27.70;1.00
11009;DHT22;5557;51.670;7.788;2023-06-22T11:02:02;27.70;1.00
11009;DHT22;5557;51.670;7.788;2023-06-22T11:04:29;27.80;1.00
11009;DHT22;5557;51.670;7.788;2023-06-22T11:06:56;27.70;1.00
11009;DHT22;5557;51.670;7.788;2023-06-22T11:09:23;27.90;1.00
11009;DHT22;5557;51.670;7.788;2023-06-22T11:11:55;28.00;1.00
11009;DHT22;5557;51.670;7.788;2023-06-22T11:14:22;28.10;1.00
11009;DHT22;5557;51.670;7.788;2023-06-22T11:16:49;28.10;1.00
11009;DHT22;5557;51.670;7.788;2023-06-22T11:19:18;28.00;1.00
11009;DHT22;5557;51.670;7.788;2023-06-22T11:21:45;28.00;1.00
11009;DHT22;5557;51.670;7.788;2023-06-22T11:24:13;28.00;1.00
11009;DHT22;5557;51.670;7.788;2023-06-22T11:26:40;27.80;1.00
11009;DHT22;5557;51.670;7.788;2023-06-22T11:29:07;27.50;1.00
11009;DHT22;5557;51.670;7.788;2023-06-22T11:31:39;27.30;1.00
11009;DHT22;5557;51.670;7.788;2023-06-22T11:34:07;27.10;1.00
11009;DHT22;5557;51.670;7.788;2023-06-22T11:36:34;27.00;1.00
11009;DHT22;5557;51.670;7.788;2023-06-22T11:39:02;27.00;1.00
11009;DHT22;5557;51.670;7.788;2023-06-22T11:41:29;26.80;1.00
11009;DHT22;5557;51.670;7.788;2023-06-22T11:43:56;26.50;1.00
11009;DHT22;5557;51.670;7.788;2023-06-22T11:46:23;26.20;1.00
11009;DHT22;5557;51.670;7.788;2023-06-22T11:48:50;25.90;1.00
11009;DHT22;5557;51.670;7.788;2023-06-22T11:51:17;25.70;1.00
11009;DHT22;5557;51.670;7.788;2023-06-22T11:53:43;25.40;6.10
11009;DHT22;5557;51.670;7.788;2023-06-22T11:56:10;25.10;18.70
11009;DHT22;5557;51.670;7.788;2023-06-22T11:58:37;24.80;15.00
11009;DHT22;5557;51.670;7.788;2023-06-22T12:01:04;24.60;21.40
11009;DHT22;5557;51.670;7.788;2023-06-22T12:03:31;24.40;27.00
11009;DHT22;5557;51.670;7.788;2023-06-22T12:05:59;24.30;26.80
11009;DHT22;5557;51.670;7.788;2023-06-22T12:08:27;24.20;28.60
11009;DHT22;5557;51.670;7.788;2023-06-22T12:10:53;24.00;27.70
11009;DHT22;5557;51.670;7.788;2023-06-22T12:13:21;24.00;32.70
11009;DHT22;5557;51.670;7.788;2023-06-22T12:15:47;23.90;37.90
11009;DHT22;5557;51.670;7.788;2023-06-22T12:18:15;23.80;43.10
11009;DHT22;5557;51.670;7.788;2023-06-22T12:20:42;23.70;48.00
11009;DHT22;5557;51.670;7.788;2023-06-22T12:23:09;23.70;51.90
11009;DHT22;5557;51.670;7.788;2023-06-22T12:25:36;23.60;54.00
11009;DHT22;5557;51.670;7.788;2023-06-22T12:28:03;23.50;53.40
11009;DHT22;5557;51.670;7.788;2023-06-22T12:30:32;23.40;62.50
11009;DHT22;5557;51.670;7.788;2023-06-22T12:32:59;23.30;71.00
11009;DHT22;5557;51.670;7.788;2023-06-22T12:35:26;23.10;76.40
11009;DHT22;5557;51.670;7.788;2023-06-22T12:37:53;23.00;93.00
11009;DHT22;5557;51.670;7.788;2023-06-22T12:40:20;22.70;97.40
11009;DHT22;5557;51.670;7.788;2023-06-22T12:42:47;22.50;99.90
11009;DHT22;5557;51.670;7.788;2023-06-22T12:45:14;22.40;99.90
11009;DHT22;5557;51.670;7.788;2023-06-22T12:47:41;22.20;99.90
11009;DHT22;5557;51.670;7.788;2023-06-22T12:50:08;22.00;99.90
11009;DHT22;5557;51.670;7.788;2023-06-22T12:52:37;21.80;99.90
11009;DHT22;5557;51.670;7.788;2023-06-22T12:55:07;21.70;99.90
11009;DHT22;5557;51.670;7.788;2023-06-22T12:57:34;21.50;99.90
11009;DHT22;5557;51.670;7.788;2023-06-22T13:00:01;21.40;99.90
11009;DHT22;5557;51.670;7.788;2023-06-22T13:02:28;21.40;99.90
11009;DHT22;5557;51.670;7.788;2023-06-22T13:04:55;21.30;99.90
11009;DHT22;5557;51.670;7.788;2023-06-22T13:07:22;21.20;99.90
11009;DHT22;5557;51.670;7.788;2023-06-22T13:09:50;21.30;99.90
11009;DHT22;5557;51.670;7.788;2023-06-22T13:12:20;21.40;99.90
11009;DHT22;5557;51.670;7.788;2023-06-22T13:14:48;21.30;99.90
11009;DHT22;5557;51.670;7.788;2023-06-22T13:17:15;21.20;99.90
11009;DHT22;5557;51.670;7.788;2023-06-22T13:19:42;21.20;99.90
11009;DHT22;5557;51.670;7.788;2023-06-22T13:22:45;21.10;99.90
11009;DHT22;5557;51.670;7.788;2023-06-22T13:25:12;21.00;99.90
11009;DHT22;5557;51.670;7.788;2023-06-22T13:27:41;21.00;99.90
11009;DHT22;5557;51.670;7.788;2023-06-22T13:30:08;21.10;99.90
11009;DHT22;5557;51.670;7.788;2023-06-22T13:32:39;21.20;99.90
11009;DHT22;5557;51.670;7.788;2023-06-22T13:35:12;21.30;99.90
11009;DHT22;5557;51.670;7.788;2023-06-22T13:37:39;21.50;99.90
11009;DHT22;5557;51.670;7.788;2023-06-22T13:40:07;21.80;99.90
11009;DHT22;5557;51.670;7.788;2023-06-22T13:42:35;22.00;99.90
11009;DHT22;5557;51.670;7.788;2023-06-22T13:45:03;22.10;99.90
11009;DHT22;5557;51.670;7.788;2023-06-22T13:47:30;22.20;99.90
11009;DHT22;5557;51.670;7.788;2023-06-22T13:49:58;22.20;99.90
11009;DHT22;5557;51.670;7.788;2023-06-22T13:52:25;22.30;99.90
11009;DHT22;5557;51.670;7.788;2023-06-22T13:54:52;22.30;99.90
11009;DHT22;5557;51.670;7.788;2023-06-22T13:57:19;22.30;99.90
11009;DHT22;5557;51.670;7.788;2023-06-22T13:59:46;22.40;99.90
11009;DHT22;5557;51.670;7.788;2023-06-22T14:02:13;22.50;99.90
11009;DHT22;5557;51.670;7.788;2023-06-22T14:04:40;22.70;99.90
11009;DHT22;5557;51.670;7.788;2023-06-22T14:07:07;22.80;99.90
11009;DHT22;5557;51.670;7.788;2023-06-22T14:09:34;23.00;99.90
11009;DHT22;5557;51.670;7.788;2023-06-22T14:12:05;23.20;99.90
11009;DHT22;5557;51.670;7.788;2023-06-22T14:14:33;23.40;99.90
11009;DHT22;5557;51.670;7.788;2023-06-22T14:17:00;23.40;99.50
11009;DHT22;5557;51.670;7.788;2023-06-22T14:19:27;23.40;97.90
11009;DHT22;5557;51.670;7.788;2023-06-22T14:21:54;23.30;99.70
11009;DHT22;5557;51.670;7.788;2023-06-22T14:24:21;23.30;99.90
11009;DHT22;5557;51.670;7.788;2023-06-22T14:26:51;23.40;99.90
11009;DHT22;5557;51.670;7.788;2023-06-22T14:29:18;23.30;99.90
11009;DHT22;5557;51.670;7.788;2023-06-22T14:31:46;23.30;99.90
11009;DHT22;5557;51.670;7.788;2023-06-22T14:34:14;23.40;97.40
11009;DHT22;5557;51.670;7.788;2023-06-22T14:36:43;23.50;99.10
11009;DHT22;5557;51.670;7.788;2023-06-22T14:39:10;23.50;91.90
11009;DHT22;5557;51.670;7.788;2023-06-22T14:41:37;23.70;96.70
11009;DHT22;5557;51.670;7.788;2023-06-22T14:44:04;23.70;92.30
11009;DHT22;5557;51.670;7.788;2023-06-22T14:46:31;23.70;91.70
11009;DHT22;5557;51.670;7.788;2023-06-22T14:48:58;23.70;81.30
11009;DHT22;5557;51.670;7.788;2023-06-22T14:51:25;23.70;83.30
11009;DHT22;5557;51.670;7.788;2023-06-22T14:53:52;23.70;78.60
11009;DHT22;5557;51.670;7.788;2023-06-22T14:56:19;23.70;83.80
11009;DHT22;5557;51.670;7.788;2023-06-22T14:58:46;23.80;87.00
11009;DHT22;5557;51.670;7.788;2023-06-22T15:01:14;24.00;80.10
11009;DHT22;5557;51.670;7.788;2023-06-22T15:03:41;24.10;69.00
11009;DHT22;5557;51.670;7.788;2023-06-22T15:06:09;24.20;69.20
11009;DHT22;5557;51.670;7.788;2023-06-22T15:08:39;24.40;70.90
11009;DHT22;5557;51.670;7.788;2023-06-22T15:11:07;24.40;70.30
11009;DHT22;5557;51.670;7.788;2023-06-22T15:13:34;24.20;63.20
11009;DHT22;5557;51.670;7.788;2023-06-22T15:16:02;24.10;75.50
11009;DHT22;5557;51.670;7.788;2023-06-22T15:18:30;24.00;77.50
11009;DHT22;5557;51.670;7.788;2023-06-22T15:20:57;23.90;83.10
11009;DHT22;5557;51.670;7.788;2023-06-22T15:23:26;23.80;83.80
11009;DHT22;5557;51.670;7.788;2023-06-22T15:25:53;23.50;87.80
11009;DHT22;5557;51.670;7.788;2023-06-22T15:28:20;23.50;90.30
11009;DHT22;5557;51.670;7.788;2023-06-22T15:30:49;23.50;85.10
11009;DHT22;5557;51.670;7.788;2023-06-22T15:33:16;23.50;85.70
11009;DHT22;5557;51.670;7.788;2023-06-22T15:35:43;23.60;85.50
11009;DHT22;5557;51.670;7.788;2023-06-22T15:38:10;23.60;86.00
11009;DHT22;5557;51.670;7.788;2023-06-22T15:40:37;23.50;84.70
11009;DHT22;5557;51.670;7.788;2023-06-22T15:43:04;23.40;83.40
11009;DHT22;5557;51.670;7.788;2023-06-22T15:45:31;23.30;86.60
11009;DHT22;5557;51.670;7.788;2023-06-22T15:47:58;23.20;87.50
11009;DHT22;5557;51.670;7.788;2023-06-22T15:50:25;23.20;90.60
11009;DHT22;5557;51.670;7.788;2023-06-22T15:52:52;23.10;94.00
11009;DHT22;5557;51.670;7.788;2023-06-22T15:55:19;23.00;94.30
11009;DHT22;5557;51.670;7.788;2023-06-22T15:57:46;22.90;97.30